Washburn, WI

2:25 AM CDT on September 01, 2015 (GMT -0500)
Washburn Hilltop | | Change Station
CLOSE
Current Station
Personal Weather Station
Location: Washburn, WI
Elevation: 981 ft
Nearby Weather Stations

Elev 981 ft 46.69 °N, 90.91 °W | Updated 47 seconds ago

Partly Cloudy
Partly Cloudy
70.5 °F
Feels Like 70.5 °F
N
0.0
Wind Variable Wind from SSW
Gusts 0.0 mph

Today
High -- | Low -- °F
--% Chance of Precip.
Yesterday
High -- | Low -- °F
Precip. -- in
6:23 AM 7:43 PM
Waning Gibbous, 91% visible
Pressure 29.89 in
Visibility 6.0 miles
Clouds Few 3800 ft
Dew Point 70 °F
Humidity 98%
Rainfall 0.00 in
Snow Depth Not available.
UV 0.0 out of 12
Pollen 10.10 out of 12
Air Quality Not available.
Flu Activity Not available.
METAR KASX 010653Z AUTO 21006KT 6SM BR FEW038 22/22 A2990 RMK AO2 SLP122 T02170217
Pressure 29.89 in
Visibility 6.0 miles
Clouds Few 3800 ft
Dew Point 70 °F
Humidity 98%
Rainfall 0.00 in
Snow Depth Not available.
UV 0.0 out of 12
Pollen 10.10 out of 12
Air Quality Not available.
Flu Activity Not available.
METAR KASX 010653Z AUTO 21006KT 6SM BR FEW038 22/22 A2990 RMK AO2 SLP122 T02170217

10-Day Weather Forecast

×

Almanac

Astronomy

Sep. 01, 2015 Rise Set
Actual Time
Civil Twilight
Nautical Twilight
Astronomical Twilight
Moon
Length of Visible Light
Length of Day
Tomorrow will be .
, % of the Moon is Illuminated

Today's Extremes

State Highs State Lows

Community

WunderPhotos

Upload Photos

1,851,488 photos uploaded!

WunderBlogs® & News

Nearby

Air Quality

  Air Quality AQ Index Pollutant
Not available.

Snow Depth

Station Depth Elevation

Earthquake Activity

City Distance Mag. Time & Date
Minimum magnitude displayed is 2.5.

Coastal Water Temperatures

Place Temperature

Stations

Nearby Weather Stations

Station Location Temp. Windchill Dew Point Humidity Wind Precip. Elev Updated Type